Strona główna
METAR-TAF:

METAR-TAF

Lotnisko :

Port lotniczy Phnom Penh

Phnom Penh, Kambodża

Szerokość geograficzna: 11-33N, Długość geograficzna: 104-51E, wysokość: 10 m

Aktualna obserwacja pogody

Raport powstał 35 minut temu, godzina 21:30 UTC
Temperatura 26°C
Wilgotność 94%
Ciśnienie 1010 hPa
Widzialność: 9000 m
Rozproszone chmury na wysokości 1700 ft
Rozproszone chmury na wysokości 4000 ft

METAR: VDPP 102130Z VEB02KT 9000 SCT017 SCT040 26/25 Q1010

czas: 05:05 (22:05 UTC)

Prognoza

Raport powstał 5 godziny i 5 minut temu, godzina 17:00 UTC
Prognoza ważna od 10 godzina 18 UTC do 11 godzina 12 UTC
Wiatr 8 kt od południowo-południowy wschód
Widzialność 10 km lub więcej
Rozproszone chmury na wysokości 1700 ft
Przejściowo
od 11 godzina 06 UTC do 11 godzina 11 UTC
Rozproszone chmury na wysokości 1500 ft
Mało chmury na wysokości 1700 ft, Cumulonimbus.

TAF: VDPP 101700Z 1018/1112 15008KT 9999 SCT017 TEMPO 1106/1111 SCT015 FEW017CB

Obserwacja i prognoza pogody dla ponad 4000 lotnisk (raport METAR i TAF).

Dostępne stacje oznaczono żółtymi i czerwonymi punktami na mapie.

Najedź kursorem aby zobaczyć nazwę stacji.

Kliknij aby zobaczyć obserwacje i prognozy pogody.

Aby zmienić mapę: kliknij na zielony przycisk z czarnym krzyżykiem, aby powiększyć; na zielony przycisk z myślnikiem, aby pomniejszyć; na zielone strzałki, aby przejść do map sąsiednich.


METAR-TAF: